Wetterdaten: Dienstag, 24.08.2010
Datum Zeit Temp. A. Feuchte A. Luftdruck Regen Wind Richtung Richtung Sonnenschein UV Solar Windben
24.08.2010 00:00 18,5 C 79 % 1001,1 hPa 0,0 mm 3,2 km/h (1 Bft) S-SW 202 0 min 0 UV-I 0 W/m 11,3 km/h (2 Bft)
24.08.2010 00:10 18,8 C 78 % 1001,0 hPa 0,0 mm 3,2 km/h (1 Bft) S-SW 202 0 min 0 UV-I 0 W/m 9,7 km/h (2 Bft)
24.08.2010 00:20 18,9 C 79 % 1000,9 hPa 0,0 mm 3,2 km/h (1 Bft) S 180 0 min 0 UV-I 0 W/m 9,7 km/h (2 Bft)
24.08.2010 00:30 19,1 C 79 % 1001,0 hPa 0,0 mm 3,2 km/h (1 Bft) SW 225 0 min 0 UV-I 0 W/m 16,1 km/h (3 Bft)
24.08.2010 00:40 19,1 C 80 % 1001,0 hPa 0,0 mm 4,8 km/h (1 Bft) S-SW 202 0 min 0 UV-I 0 W/m 11,3 km/h (2 Bft)
24.08.2010 00:50 18,9 C 80 % 1000,9 hPa 0,0 mm 4,8 km/h (1 Bft) S-SW 202 0 min 0 UV-I 0 W/m 14,5 km/h (3 Bft)
24.08.2010 01:00 18,8 C 81 % 1001,2 hPa 0,0 mm 4,8 km/h (1 Bft) SW 225 0 min 0 UV-I 0 W/m 11,3 km/h (2 Bft)
24.08.2010 01:10 18,9 C 81 % 1001,4 hPa 0,0 mm 3,2 km/h (1 Bft) S-SW 202 0 min 0 UV-I 0 W/m 14,5 km/h (3 Bft)
24.08.2010 01:20 18,9 C 81 % 1001,4 hPa 0,0 mm 3,2 km/h (1 Bft) SW 225 0 min 0 UV-I 0 W/m 11,3 km/h (2 Bft)
24.08.2010 01:30 18,9 C 81 % 1001,4 hPa 0,0 mm 6,4 km/h (2 Bft) W-SW 247 0 min 0 UV-I 0 W/m 22,5 km/h (4 Bft)
24.08.2010 01:40 18,8 C 83 % 1001,4 hPa 2,3 mm 8,0 km/h (2 Bft) W 270 0 min 0 UV-I 0 W/m 20,9 km/h (4 Bft)
24.08.2010 01:50 17,9 C 85 % 1001,4 hPa 2,8 mm 9,7 km/h (2 Bft) W 270 0 min 0 UV-I 0 W/m 32,2 km/h (5 Bft)
24.08.2010 02:00 17,1 C 87 % 1001,5 hPa 0,3 mm 3,2 km/h (1 Bft) W 270 0 min 0 UV-I 0 W/m 14,5 km/h (3 Bft)
24.08.2010 02:10 16,9 C 89 % 1001,5 hPa 0,0 mm 1,6 km/h (1 Bft) W 270 0 min 0 UV-I 0 W/m 11,3 km/h (2 Bft)
24.08.2010 02:20 17,0 C 90 % 1001,4 hPa 0,0 mm 1,6 km/h (1 Bft) W-SW 247 0 min 0 UV-I 0 W/m 6,4 km/h (2 Bft)
24.08.2010 02:30 17,1 C 90 % 1001,4 hPa 0,0 mm 3,2 km/h (1 Bft) W-SW 247 0 min 0 UV-I 0 W/m 9,7 km/h (2 Bft)
24.08.2010 02:40 17,1 C 90 % 1001,3 hPa 0,0 mm 3,2 km/h (1 Bft) SW 225 0 min 0 UV-I 0 W/m 16,1 km/h (3 Bft)
24.08.2010 02:50 17,0 C 90 % 1001,6 hPa 0,0 mm 1,6 km/h (1 Bft) W-SW 247 0 min 0 UV-I 0 W/m 9,7 km/h (2 Bft)
24.08.2010 03:00 16,9 C 90 % 1001,6 hPa 0,0 mm 3,2 km/h (1 Bft) W-SW 247 0 min 0 UV-I 0 W/m 9,7 km/h (2 Bft)
24.08.2010 03:10 16,9 C 90 % 1001,8 hPa 0,0 mm 1,6 km/h (1 Bft) W-SW 247 0 min 0 UV-I 0 W/m 12,9 km/h (3 Bft)
24.08.2010 03:20 16,9 C 90 % 1001,9 hPa 0,0 mm 3,2 km/h (1 Bft) W-SW 247 0 min 0 UV-I 0 W/m 16,1 km/h (3 Bft)
24.08.2010 03:30 16,9 C 89 % 1001,9 hPa 0,0 mm 3,2 km/h (1 Bft) W-SW 247 0 min 0 UV-I 0 W/m 11,3 km/h (2 Bft)
24.08.2010 03:40 16,8 C 89 % 1002,1 hPa 0,0 mm 6,4 km/h (2 Bft) W 270 0 min 0 UV-I 0 W/m 22,5 km/h (4 Bft)
24.08.2010 03:50 16,7 C 89 % 1002,2 hPa 0,0 mm 4,8 km/h (1 Bft) SW 225 0 min 0 UV-I 0 W/m 16,1 km/h (3 Bft)
24.08.2010 04:00 16,7 C 88 % 1002,2 hPa 0,0 mm 4,8 km/h (1 Bft) W-SW 247 0 min 0 UV-I 0 W/m 22,5 km/h (4 Bft)
24.08.2010 04:10 16,7 C 88 % 1002,3 hPa 0,0 mm 4,8 km/h (1 Bft) SW 225 0 min 0 UV-I 0 W/m 16,1 km/h (3 Bft)
24.08.2010 04:20 16,6 C 87 % 1002,6 hPa 0,0 mm 4,8 km/h (1 Bft) W-SW 247 0 min 0 UV-I 0 W/m 19,3 km/h (3 Bft)
24.08.2010 04:30 16,6 C 87 % 1002,7 hPa 0,0 mm 6,4 km/h (2 Bft) W-SW 247 0 min 0 UV-I 0 W/m 19,3 km/h (3 Bft)
24.08.2010 04:40 16,4 C 87 % 1002,6 hPa 0,0 mm 6,4 km/h (2 Bft) W-SW 247 0 min 0 UV-I 0 W/m 17,7 km/h (3 Bft)
24.08.2010 04:50 16,4 C 87 % 1002,7 hPa 0,0 mm 6,4 km/h (2 Bft) W-SW 247 0 min 0 UV-I 0 W/m 19,3 km/h (3 Bft)
24.08.2010 05:00 16,3 C 87 % 1002,8 hPa 0,0 mm 6,4 km/h (2 Bft) W-SW 247 0 min 0 UV-I 0 W/m 19,3 km/h (3 Bft)
24.08.2010 05:10 16,2 C 87 % 1002,9 hPa 0,0 mm 3,2 km/h (1 Bft) W-SW 247 0 min 0 UV-I 0 W/m 16,1 km/h (3 Bft)
24.08.2010 05:20 16,0 C 87 % 1002,8 hPa 0,0 mm 1,6 km/h (1 Bft) SW 225 0 min 0 UV-I 0 W/m 8,0 km/h (2 Bft)
24.08.2010 05:30 15,8 C 87 % 1002,9 hPa 0,0 mm 3,2 km/h (1 Bft) W-SW 247 0 min 0 UV-I 0 W/m 17,7 km/h (3 Bft)
24.08.2010 05:40 15,7 C 88 % 1002,9 hPa 0,0 mm 3,2 km/h (1 Bft) W 270 0 min 0 UV-I 0 W/m 11,3 km/h (2 Bft)
24.08.2010 05:50 15,6 C 88 % 1003,1 hPa 0,0 mm 3,2 km/h (1 Bft) W-SW 247 0 min 0 UV-I 0 W/m 9,7 km/h (2 Bft)
24.08.2010 06:00 15,5 C 88 % 1003,1 hPa 0,0 mm 3,2 km/h (1 Bft) W-SW 247 0 min 0 UV-I 0 W/m 11,3 km/h (2 Bft)
24.08.2010 06:10 15,3 C 88 % 1003,1 hPa 0,0 mm 1,6 km/h (1 Bft) W 270 0 min 0 UV-I 0 W/m 9,7 km/h (2 Bft)
24.08.2010 06:20 15,1 C 89 % 1003,3 hPa 0,0 mm 3,2 km/h (1 Bft) W-SW 247 0 min 0 UV-I 0 W/m 9,7 km/h (2 Bft)
24.08.2010 06:30 15,1 C 89 % 1003,5 hPa 0,0 mm 1,6 km/h (1 Bft) W-SW 247 0 min 0 UV-I 0 W/m 6,4 km/h (2 Bft)
24.08.2010 06:40 15,1 C 89 % 1003,7 hPa 0,0 mm 1,6 km/h (1 Bft) SW 225 0 min 0 UV-I 5 W/m 6,4 km/h (2 Bft)
24.08.2010 06:50 15,1 C 89 % 1003,8 hPa 0,0 mm 3,2 km/h (1 Bft) W-SW 247 0 min 0 UV-I 7 W/m 16,1 km/h (3 Bft)
24.08.2010 07:00 15,1 C 89 % 1003,9 hPa 0,0 mm 4,8 km/h (1 Bft) W-SW 247 0 min 0 UV-I 14 W/m 14,5 km/h (3 Bft)
24.08.2010 07:10 15,1 C 89 % 1004,0 hPa 0,0 mm 4,8 km/h (1 Bft) W-SW 247 0 min 0 UV-I 18 W/m 12,9 km/h (3 Bft)
24.08.2010 07:20 15,1 C 88 % 1004,0 hPa 0,0 mm 3,2 km/h (1 Bft) W-SW 247 0 min 0 UV-I 37 W/m 14,5 km/h (3 Bft)
24.08.2010 07:30 15,1 C 88 % 1004,2 hPa 0,0 mm 4,8 km/h (1 Bft) W-SW 247 0 min 0 UV-I 62 W/m 16,1 km/h (3 Bft)
24.08.2010 07:40 15,1 C 87 % 1004,3 hPa 0,0 mm 4,8 km/h (1 Bft) W 270 0 min 0 UV-I 77 W/m 19,3 km/h (3 Bft)
24.08.2010 07:50 15,1 C 86 % 1004,5 hPa 0,0 mm 6,4 km/h (2 Bft) W 270 0 min 1 UV-I 107 W/m 20,9 km/h (4 Bft)
24.08.2010 08:00 15,4 C 84 % 1004,9 hPa 0,0 mm 7,7 km/h (2 Bft) W 263 0 min 0 UV-I 85 W/m 20,9 km/h (4 Bft)
24.08.2010 08:10 15,6 C 84 % 1004,9 hPa 0,0 mm 6,4 km/h (2 Bft) W-SW 247 10 min 1 UV-I 192 W/m 20,9 km/h (4 Bft)
24.08.2010 08:20 15,8 C 84 % 1005,0 hPa 0,0 mm 3,2 km/h (1 Bft) W-SW 247 10 min 1 UV-I 181 W/m 11,3 km/h (2 Bft)
24.08.2010 08:30 15,9 C 83 % 1005,2 hPa 0,0 mm 6,4 km/h (2 Bft) W-SW 247 10 min 1 UV-I 207 W/m 17,7 km/h (3 Bft)
24.08.2010 08:40 16,0 C 82 % 1005,3 hPa 0,0 mm 8,0 km/h (2 Bft) W-SW 247 10 min 1 UV-I 244 W/m 19,3 km/h (3 Bft)
24.08.2010 08:50 16,3 C 81 % 1005,3 hPa 0,0 mm 6,4 km/h (2 Bft) W-SW 247 10 min 1 UV-I 316 W/m 19,3 km/h (3 Bft)
24.08.2010 09:00 16,5 C 79 % 1005,4 hPa 0,0 mm 8,0 km/h (2 Bft) W-SW 247 10 min 1 UV-I 294 W/m 19,3 km/h (3 Bft)
24.08.2010 09:10 16,4 C 79 % 1005,4 hPa 0,0 mm 6,4 km/h (2 Bft) W-SW 247 10 min 1 UV-I 281 W/m 16,1 km/h (3 Bft)
24.08.2010 09:20 16,4 C 77 % 1005,5 hPa 0,0 mm 6,4 km/h (2 Bft) W-SW 247 10 min 2 UV-I 380 W/m 19,3 km/h (3 Bft)
24.08.2010 09:30 16,6 C 77 % 1005,5 hPa 0,0 mm 6,4 km/h (2 Bft) W-SW 247 10 min 2 UV-I 355 W/m 19,3 km/h (3 Bft)
24.08.2010 09:40 16,7 C 76 % 1005,6 hPa 0,0 mm 8,0 km/h (2 Bft) W-SW 247 0 min 2 UV-I 227 W/m 19,3 km/h (3 Bft)
24.08.2010 09:50 16,6 C 76 % 1005,7 hPa 0,0 mm 9,7 km/h (2 Bft) W-SW 247 0 min 2 UV-I 144 W/m 24,1 km/h (4 Bft)
24.08.2010 10:00 16,7 C 75 % 1005,8 hPa 0,0 mm 9,7 km/h (2 Bft) W-SW 247 10 min 3 UV-I 427 W/m 25,7 km/h (4 Bft)
24.08.2010 10:10 17,1 C 73 % 1005,8 hPa 0,0 mm 9,7 km/h (2 Bft) W-SW 247 10 min 3 UV-I 519 W/m 25,7 km/h (4 Bft)
24.08.2010 10:20 17,4 C 71 % 1006,0 hPa 0,0 mm 8,0 km/h (2 Bft) W-SW 247 10 min 3 UV-I 534 W/m 22,5 km/h (4 Bft)
24.08.2010 10:30 17,8 C 69 % 1006,1 hPa 0,0 mm 11,3 km/h (2 Bft) W 270 10 min 3 UV-I 492 W/m 30,6 km/h (5 Bft)
24.08.2010 10:40 17,8 C 70 % 1006,2 hPa 0,0 mm 11,3 km/h (2 Bft) W 270 10 min 3 UV-I 580 W/m 27,4 km/h (4 Bft)
24.08.2010 10:50 17,7 C 68 % 1006,3 hPa 0,0 mm 11,3 km/h (2 Bft) W-SW 247 10 min 3 UV-I 605 W/m 27,4 km/h (4 Bft)
24.08.2010 11:00 17,8 C 67 % 1006,4 hPa 0,0 mm 8,0 km/h (2 Bft) W 270 10 min 4 UV-I 552 W/m 24,1 km/h (4 Bft)
24.08.2010 11:10 18,0 C 67 % 1006,5 hPa 0,0 mm 9,7 km/h (2 Bft) W-SW 247 0 min 3 UV-I 218 W/m 25,7 km/h (4 Bft)
24.08.2010 11:20 17,7 C 66 % 1006,6 hPa 0,0 mm 11,3 km/h (2 Bft) W 270 10 min 4 UV-I 527 W/m 30,6 km/h (5 Bft)
24.08.2010 11:30 18,0 C 65 % 1006,7 hPa 0,0 mm 11,3 km/h (2 Bft) W-SW 247 10 min 4 UV-I 552 W/m 25,7 km/h (4 Bft)
24.08.2010 11:40 18,4 C 65 % 1006,7 hPa 0,0 mm 6,4 km/h (2 Bft) W 270 10 min 4 UV-I 601 W/m 19,3 km/h (3 Bft)
24.08.2010 11:50 18,6 C 65 % 1006,7 hPa 0,0 mm 6,4 km/h (2 Bft) W 270 10 min 4 UV-I 543 W/m 19,3 km/h (3 Bft)
24.08.2010 12:00 18,9 C 61 % 1006,7 hPa 0,0 mm 11,3 km/h (2 Bft) W 270 10 min 5 UV-I 506 W/m 25,7 km/h (4 Bft)
24.08.2010 12:10 18,4 C 64 % 1006,9 hPa 0,0 mm 9,7 km/h (2 Bft) W 270 0 min 3 UV-I 294 W/m 29,0 km/h (5 Bft)
24.08.2010 12:20 18,2 C 64 % 1007,0 hPa 0,0 mm 8,0 km/h (2 Bft) W 270 0 min 4 UV-I 345 W/m 24,1 km/h (4 Bft)
24.08.2010 12:30 18,1 C 63 % 1007,1 hPa 0,0 mm 9,7 km/h (2 Bft) W-SW 247 10 min 5 UV-I 487 W/m 25,7 km/h (4 Bft)
24.08.2010 12:40 18,6 C 62 % 1006,8 hPa 0,0 mm 9,7 km/h (2 Bft) W-SW 247 10 min 6 UV-I 652 W/m 24,1 km/h (4 Bft)
24.08.2010 12:50 18,9 C 59 % 1007,0 hPa 0,0 mm 11,3 km/h (2 Bft) W-SW 247 10 min 5 UV-I 645 W/m 27,4 km/h (4 Bft)
24.08.2010 13:00 19,1 C 59 % 1007,2 hPa 0,0 mm 11,3 km/h (2 Bft) W 270 10 min 5 UV-I 645 W/m 25,7 km/h (4 Bft)
24.08.2010 13:10 18,8 C 58 % 1007,3 hPa 0,0 mm 12,9 km/h (3 Bft) W 270 0 min 5 UV-I 257 W/m 25,7 km/h (4 Bft)
24.08.2010 13:20 18,8 C 57 % 1007,3 hPa 0,0 mm 9,7 km/h (2 Bft) W 270 10 min 5 UV-I 693 W/m 22,5 km/h (4 Bft)
24.08.2010 13:30 19,3 C 57 % 1007,3 hPa 0,0 mm 8,0 km/h (2 Bft) W 270 10 min 6 UV-I 812 W/m 27,4 km/h (4 Bft)
24.08.2010 13:40 20,2 C 54 % 1007,2 hPa 0,0 mm 8,0 km/h (2 Bft) W 270 10 min 6 UV-I 763 W/m 25,7 km/h (4 Bft)
24.08.2010 13:50 19,7 C 58 % 1007,4 hPa 0,0 mm 9,7 km/h (2 Bft) W 270 10 min 5 UV-I 772 W/m 29,0 km/h (5 Bft)
24.08.2010 14:00 19,8 C 53 % 1007,5 hPa 0,0 mm 11,3 km/h (2 Bft) W 270 10 min 5 UV-I 708 W/m 20,9 km/h (4 Bft)
24.08.2010 14:10 19,9 C 52 % 1007,4 hPa 0,0 mm 9,7 km/h (2 Bft) W 270 10 min 5 UV-I 788 W/m 24,1 km/h (4 Bft)
24.08.2010 14:20 20,2 C 52 % 1007,5 hPa 0,0 mm 9,7 km/h (2 Bft) W 270 10 min 5 UV-I 812 W/m 25,7 km/h (4 Bft)
24.08.2010 14:30 20,4 C 53 % 1007,5 hPa 0,0 mm 9,7 km/h (2 Bft) W 270 10 min 5 UV-I 777 W/m 25,7 km/h (4 Bft)
24.08.2010 14:40 19,8 C 55 % 1007,7 hPa 0,0 mm 8,0 km/h (2 Bft) W 270 10 min 4 UV-I 728 W/m 24,1 km/h (4 Bft)
24.08.2010 14:50 19,7 C 55 % 1007,7 hPa 0,0 mm 8,0 km/h (2 Bft) W 270 10 min 4 UV-I 663 W/m 25,7 km/h (4 Bft)
24.08.2010 15:00 20,1 C 52 % 1007,7 hPa 0,0 mm 8,0 km/h (2 Bft) W 270 10 min 4 UV-I 747 W/m 22,5 km/h (4 Bft)
24.08.2010 15:10 20,4 C 52 % 1007,8 hPa 0,0 mm 11,3 km/h (2 Bft) W 270 10 min 4 UV-I 810 W/m 25,7 km/h (4 Bft)
24.08.2010 15:20 20,5 C 53 % 1007,7 hPa 0,0 mm 9,7 km/h (2 Bft) W 270 10 min 4 UV-I 763 W/m 20,9 km/h (4 Bft)
24.08.2010 15:30 20,4 C 54 % 1007,7 hPa 0,0 mm 9,7 km/h (2 Bft) W 270 10 min 4 UV-I 744 W/m 24,1 km/h (4 Bft)
24.08.2010 15:40 19,9 C 53 % 1007,8 hPa 0,0 mm 11,3 km/h (2 Bft) W-SW 247 10 min 3 UV-I 745 W/m 33,8 km/h (5 Bft)
24.08.2010 15:50 19,8 C 51 % 1007,7 hPa 0,0 mm 9,7 km/h (2 Bft) W 270 10 min 3 UV-I 742 W/m 25,7 km/h (4 Bft)
24.08.2010 16:00 20,1 C 51 % 1007,9 hPa 0,0 mm 10,9 km/h (2 Bft) W-SW 248 0 min 2 UV-I 236 W/m 24,1 km/h (4 Bft)
24.08.2010 16:10 20,0 C 50 % 1007,9 hPa 0,0 mm 12,9 km/h (3 Bft) W 270 10 min 3 UV-I 679 W/m 29,0 km/h (5 Bft)
24.08.2010 16:20 19,9 C 50 % 1007,9 hPa 0,0 mm 12,9 km/h (3 Bft) W-SW 247 10 min 3 UV-I 643 W/m 27,4 km/h (4 Bft)
24.08.2010 16:30 19,9 C 48 % 1008,0 hPa 0,0 mm 11,3 km/h (2 Bft) W-SW 247 10 min 3 UV-I 682 W/m 27,4 km/h (4 Bft)
24.08.2010 16:40 19,7 C 49 % 1008,1 hPa 0,0 mm 12,9 km/h (3 Bft) W 270 10 min 2 UV-I 652 W/m 24,1 km/h (4 Bft)
24.08.2010 16:50 19,4 C 51 % 1008,1 hPa 0,0 mm 9,7 km/h (2 Bft) W 270 10 min 2 UV-I 612 W/m 24,1 km/h (4 Bft)
24.08.2010 17:00 19,8 C 50 % 1008,1 hPa 0,0 mm 9,7 km/h (2 Bft) W 270 10 min 2 UV-I 580 W/m 24,1 km/h (4 Bft)
24.08.2010 17:10 20,1 C 49 % 1008,2 hPa 0,0 mm 9,7 km/h (2 Bft) W-SW 247 10 min 2 UV-I 566 W/m 22,5 km/h (4 Bft)
24.08.2010 17:20 20,3 C 50 % 1008,1 hPa 0,0 mm 9,7 km/h (2 Bft) W-SW 247 10 min 2 UV-I 496 W/m 24,1 km/h (4 Bft)
24.08.2010 17:30 20,3 C 50 % 1008,1 hPa 0,0 mm 12,9 km/h (3 Bft) W-SW 247 10 min 2 UV-I 471 W/m 33,8 km/h (5 Bft)
24.08.2010 17:40 20,1 C 49 % 1008,3 hPa 0,0 mm 11,3 km/h (2 Bft) W 270 10 min 2 UV-I 461 W/m 25,7 km/h (4 Bft)
24.08.2010 17:50 20,1 C 49 % 1008,1 hPa 0,0 mm 11,3 km/h (2 Bft) W-SW 247 10 min 1 UV-I 406 W/m 27,4 km/h (4 Bft)
24.08.2010 18:00 20,1 C 49 % 1008,2 hPa 0,0 mm 9,7 km/h (2 Bft) W 270 10 min 1 UV-I 383 W/m 20,9 km/h (4 Bft)
24.08.2010 18:10 20,1 C 49 % 1008,2 hPa 0,0 mm 8,0 km/h (2 Bft) W-SW 247 10 min 1 UV-I 371 W/m 22,5 km/h (4 Bft)
24.08.2010 18:20 19,8 C 50 % 1008,2 hPa 0,0 mm 8,0 km/h (2 Bft) W 270 0 min 1 UV-I 93 W/m 22,5 km/h (4 Bft)
24.08.2010 18:30 19,2 C 53 % 1008,1 hPa 0,0 mm 6,4 km/h (2 Bft) W-SW 247 0 min 1 UV-I 60 W/m 22,5 km/h (4 Bft)
24.08.2010 18:40 18,9 C 53 % 1008,0 hPa 0,0 mm 6,4 km/h (2 Bft) W-SW 247 10 min 1 UV-I 269 W/m 19,3 km/h (3 Bft)
24.08.2010 18:50 19,4 C 52 % 1007,9 hPa 0,0 mm 6,4 km/h (2 Bft) W-SW 247 10 min 1 UV-I 295 W/m 22,5 km/h (4 Bft)
24.08.2010 19:00 19,2 C 53 % 1007,9 hPa 0,0 mm 8,0 km/h (2 Bft) W-SW 247 10 min 1 UV-I 221 W/m 24,1 km/h (4 Bft)
24.08.2010 19:10 19,2 C 53 % 1007,9 hPa 0,0 mm 6,4 km/h (2 Bft) W-SW 247 10 min 1 UV-I 221 W/m 22,5 km/h (4 Bft)
24.08.2010 19:20 19,1 C 54 % 1007,9 hPa 0,0 mm 9,7 km/h (2 Bft) W 270 10 min 1 UV-I 142 W/m 19,3 km/h (3 Bft)
24.08.2010 19:30 18,7 C 55 % 1008,1 hPa 0,0 mm 8,0 km/h (2 Bft) W 270 0 min 0 UV-I 63 W/m 20,9 km/h (4 Bft)
24.08.2010 19:40 18,6 C 56 % 1008,1 hPa 0,0 mm 8,0 km/h (2 Bft) W-SW 247 10 min 0 UV-I 65 W/m 19,3 km/h (3 Bft)
24.08.2010 19:50 18,4 C 57 % 1008,2 hPa 0,0 mm 6,4 km/h (2 Bft) W-SW 247 0 min 0 UV-I 28 W/m 20,9 km/h (4 Bft)
24.08.2010 20:00 18,2 C 58 % 1008,3 hPa 0,0 mm 6,4 km/h (2 Bft) W-SW 247 0 min 0 UV-I 21 W/m 20,9 km/h (4 Bft)
24.08.2010 20:10 17,9 C 59 % 1008,4 hPa 0,0 mm 4,8 km/h (1 Bft) W 270 0 min 0 UV-I 16 W/m 17,7 km/h (3 Bft)
24.08.2010 20:20 17,7 C 59 % 1008,4 hPa 0,0 mm 6,4 km/h (2 Bft) W-SW 247 0 min 0 UV-I 9 W/m 22,5 km/h (4 Bft)
24.08.2010 20:30 17,7 C 60 % 1008,5 hPa 0,0 mm 6,4 km/h (2 Bft) W-SW 247 0 min 0 UV-I 0 W/m 16,1 km/h (3 Bft)
24.08.2010 20:40 17,6 C 60 % 1008,8 hPa 0,0 mm 4,8 km/h (1 Bft) W 270 0 min 0 UV-I 0 W/m 16,1 km/h (3 Bft)
24.08.2010 20:50 17,4 C 61 % 1008,8 hPa 0,0 mm 4,8 km/h (1 Bft) W-SW 247 0 min 0 UV-I 0 W/m 19,3 km/h (3 Bft)
24.08.2010 21:00 17,3 C 62 % 1008,9 hPa 0,0 mm 3,2 km/h (1 Bft) W-SW 247 0 min 0 UV-I 0 W/m 19,3 km/h (3 Bft)
24.08.2010 21:10 17,1 C 64 % 1008,9 hPa 0,0 mm 3,2 km/h (1 Bft) W-SW 247 0 min 0 UV-I 0 W/m 16,1 km/h (3 Bft)
24.08.2010 21:20 16,9 C 64 % 1009,0 hPa 0,0 mm 3,2 km/h (1 Bft) W-SW 247 0 min 0 UV-I 0 W/m 11,3 km/h (2 Bft)
24.08.2010 21:30 16,8 C 65 % 1009,1 hPa 0,0 mm 1,6 km/h (1 Bft) SW 225 0 min 0 UV-I 0 W/m 11,3 km/h (2 Bft)
24.08.2010 21:40 16,8 C 65 % 1009,1 hPa 0,0 mm 3,2 km/h (1 Bft) SW 225 0 min 0 UV-I 0 W/m 11,3 km/h (2 Bft)
24.08.2010 21:50 16,9 C 63 % 1009,2 hPa 0,0 mm 6,4 km/h (2 Bft) S-SW 202 0 min 0 UV-I 0 W/m 19,3 km/h (3 Bft)
24.08.2010 22:00 16,9 C 62 % 1009,2 hPa 0,0 mm 6,4 km/h (2 Bft) W-SW 247 0 min 0 UV-I 0 W/m 17,7 km/h (3 Bft)
24.08.2010 22:10 16,9 C 61 % 1009,4 hPa 0,0 mm 6,4 km/h (2 Bft) W-SW 247 0 min 0 UV-I 0 W/m 19,3 km/h (3 Bft)
24.08.2010 22:20 17,0 C 60 % 1009,7 hPa 0,0 mm 8,0 km/h (2 Bft) W-SW 247 0 min 0 UV-I 0 W/m 19,3 km/h (3 Bft)
24.08.2010 22:30 16,9 C 60 % 1009,7 hPa 0,0 mm 6,4 km/h (2 Bft) W-SW 247 0 min 0 UV-I 0 W/m 19,3 km/h (3 Bft)
24.08.2010 22:40 16,9 C 60 % 1009,9 hPa 0,0 mm 6,4 km/h (2 Bft) W-SW 247 0 min 0 UV-I 0 W/m 16,1 km/h (3 Bft)
24.08.2010 22:50 16,9 C 61 % 1010,0 hPa 0,0 mm 4,8 km/h (1 Bft) W-SW 247 0 min 0 UV-I 0 W/m 19,3 km/h (3 Bft)
24.08.2010 23:00 16,8 C 61 % 1010,1 hPa 0,0 mm 6,4 km/h (2 Bft) W-SW 247 0 min 0 UV-I 0 W/m 22,5 km/h (4 Bft)
24.08.2010 23:10 16,9 C 61 % 1010,2 hPa 0,0 mm 8,0 km/h (2 Bft) W-SW 247 0 min 0 UV-I 0 W/m 24,1 km/h (4 Bft)
24.08.2010 23:20 16,8 C 60 % 1010,1 hPa 0,0 mm 6,4 km/h (2 Bft) W-SW 247 0 min 0 UV-I 0 W/m 20,9 km/h (4 Bft)
24.08.2010 23:30 16,8 C 60 % 1010,2 hPa 0,0 mm 6,4 km/h (2 Bft) W-SW 247 0 min 0 UV-I 0 W/m 24,1 km/h (4 Bft)
24.08.2010 23:40 16,7 C 60 % 1010,3 hPa 0,0 mm 6,4 km/h (2 Bft) W-SW 247 0 min 0 UV-I 0 W/m 22,5 km/h (4 Bft)
24.08.2010 23:50 16,6 C 60 % 1010,3 hPa 0,0 mm 8,0 km/h (2 Bft) W-SW 247 0 min 0 UV-I 0 W/m 24,1 km/h (4 Bft)
_ Min-Zeit 06:20 16:30 00:20 - 02:10 - - - - - 02:20
Minimum _ 15,1 C 48 % 1000,9 hPa - 1,6 km/h (1 Bft) - - - - - 6,4 km/h (2 Bft)
_ Max-Zeit 15:00 02:20 23:40 01:50 13:10 - - 08:10 13:30 13:30 15:40
Maximum _ 20,6 C 90 % 1010,3 hPa 2,8 mm 12,9 km/h
W (3 Bft)
- - 10 min 6 UV-I 812 W/m 33,8 km/h
W (5 Bft)
Durchschnitt _ 17,8 C 69 % 1005,9 hPa #5,3 mm 6,8 km/h (2 Bft) W-SW - #10:00 h 3 UV-I 410 W/m 19,9 km/h (4 Bft)